sensor_id;sensor_type;location;lat;lon;timestamp;P1;durP1;ratioP1;P2;durP2;ratioP2
24637;SDS011;12773;50.162;8.548;2023-07-09T00:01:51;7.22;;;3.35;;
24637;SDS011;12773;50.162;8.548;2023-07-09T00:04:39;5.92;;;3.20;;
24637;SDS011;12773;50.162;8.548;2023-07-09T00:07:31;6.78;;;3.20;;
24637;SDS011;12773;50.162;8.548;2023-07-09T00:10:20;6.45;;;3.15;;
24637;SDS011;12773;50.162;8.548;2023-07-09T00:13:08;9.75;;;3.17;;
24637;SDS011;12773;50.162;8.548;2023-07-09T00:15:57;8.23;;;3.20;;
24637;SDS011;12773;50.162;8.548;2023-07-09T00:18:47;4.90;;;3.05;;
24637;SDS011;12773;50.162;8.548;2023-07-09T00:21:35;5.95;;;3.12;;
24637;SDS011;12773;50.162;8.548;2023-07-09T00:24:23;5.75;;;3.42;;
24637;SDS011;12773;50.162;8.548;2023-07-09T00:27:11;6.85;;;3.40;;
24637;SDS011;12773;50.162;8.548;2023-07-09T00:30:00;5.78;;;2.95;;
24637;SDS011;12773;50.162;8.548;2023-07-09T00:32:50;6.28;;;2.87;;
24637;SDS011;12773;50.162;8.548;2023-07-09T00:35:39;4.37;;;3.12;;
24637;SDS011;12773;50.162;8.548;2023-07-09T00:38:28;7.17;;;3.08;;
24637;SDS011;12773;50.162;8.548;2023-07-09T00:41:16;5.22;;;3.02;;
24637;SDS011;12773;50.162;8.548;2023-07-09T00:53:28;5.37;;;3.08;;
24637;SDS011;12773;50.162;8.548;2023-07-09T00:56:18;4.70;;;3.15;;
24637;SDS011;12773;50.162;8.548;2023-07-09T00:59:11;5.37;;;2.87;;
24637;SDS011;12773;50.162;8.548;2023-07-09T01:02:01;6.33;;;2.67;;
24637;SDS011;12773;50.162;8.548;2023-07-09T01:04:50;7.87;;;3.50;;
24637;SDS011;12773;50.162;8.548;2023-07-09T01:07:40;5.83;;;3.02;;
24637;SDS011;12773;50.162;8.548;2023-07-09T01:10:30;12.00;;;3.20;;
24637;SDS011;12773;50.162;8.548;2023-07-09T01:13:17;5.50;;;3.22;;
24637;SDS011;12773;50.162;8.548;2023-07-09T01:16:05;5.80;;;3.00;;
24637;SDS011;12773;50.162;8.548;2023-07-09T01:18:53;7.58;;;2.75;;
24637;SDS011;12773;50.162;8.548;2023-07-09T01:21:40;4.95;;;2.90;;
24637;SDS011;12773;50.162;8.548;2023-07-09T01:27:40;6.28;;;2.95;;
24637;SDS011;12773;50.162;8.548;2023-07-09T01:30:30;5.65;;;2.90;;
24637;SDS011;12773;50.162;8.548;2023-07-09T01:33:22;7.30;;;3.05;;
24637;SDS011;12773;50.162;8.548;2023-07-09T01:36:14;7.87;;;3.00;;
24637;SDS011;12773;50.162;8.548;2023-07-09T01:39:04;5.60;;;2.90;;
24637;SDS011;12773;50.162;8.548;2023-07-09T01:41:52;7.75;;;3.25;;
24637;SDS011;12773;50.162;8.548;2023-07-09T01:44:39;8.38;;;3.27;;
24637;SDS011;12773;50.162;8.548;2023-07-09T01:47:27;6.12;;;3.15;;
24637;SDS011;12773;50.162;8.548;2023-07-09T01:50:15;5.17;;;3.22;;
24637;SDS011;12773;50.162;8.548;2023-07-09T01:53:05;6.65;;;3.35;;
24637;SDS011;12773;50.162;8.548;2023-07-09T01:55:54;4.47;;;2.87;;
24637;SDS011;12773;50.162;8.548;2023-07-09T01:58:42;6.17;;;3.10;;
24637;SDS011;12773;50.162;8.548;2023-07-09T02:01:30;6.00;;;3.33;;
24637;SDS011;12773;50.162;8.548;2023-07-09T02:04:19;4.78;;;2.65;;
24637;SDS011;12773;50.162;8.548;2023-07-09T02:07:07;6.17;;;3.22;;
24637;SDS011;12773;50.162;8.548;2023-07-09T02:09:54;5.30;;;3.05;;
24637;SDS011;12773;50.162;8.548;2023-07-09T02:12:42;5.45;;;3.08;;
24637;SDS011;12773;50.162;8.548;2023-07-09T02:15:29;6.35;;;3.10;;
24637;SDS011;12773;50.162;8.548;2023-07-09T02:18:17;5.67;;;3.10;;
24637;SDS011;12773;50.162;8.548;2023-07-09T02:21:05;7.37;;;3.27;;
24637;SDS011;12773;50.162;8.548;2023-07-09T02:23:52;5.58;;;3.20;;
24637;SDS011;12773;50.162;8.548;2023-07-09T02:26:41;5.85;;;3.30;;
24637;SDS011;12773;50.162;8.548;2023-07-09T02:29:29;5.78;;;2.95;;
24637;SDS011;12773;50.162;8.548;2023-07-09T02:32:20;4.80;;;2.95;;
24637;SDS011;12773;50.162;8.548;2023-07-09T02:35:10;4.75;;;2.80;;
24637;SDS011;12773;50.162;8.548;2023-07-09T02:37:58;4.92;;;3.30;;
24637;SDS011;12773;50.162;8.548;2023-07-09T02:40:46;6.42;;;3.02;;
24637;SDS011;12773;50.162;8.548;2023-07-09T02:43:33;6.95;;;3.20;;
24637;SDS011;12773;50.162;8.548;2023-07-09T02:46:21;5.97;;;3.42;;
24637;SDS011;12773;50.162;8.548;2023-07-09T02:49:09;7.42;;;3.08;;
24637;SDS011;12773;50.162;8.548;2023-07-09T02:51:57;6.20;;;3.50;;
24637;SDS011;12773;50.162;8.548;2023-07-09T02:54:45;6.90;;;3.20;;
24637;SDS011;12773;50.162;8.548;2023-07-09T02:57:33;6.90;;;3.00;;
24637;SDS011;12773;50.162;8.548;2023-07-09T03:00:20;7.20;;;3.50;;
24637;SDS011;12773;50.162;8.548;2023-07-09T03:03:08;4.47;;;3.17;;
24637;SDS011;12773;50.162;8.548;2023-07-09T03:05:56;6.72;;;3.30;;
24637;SDS011;12773;50.162;8.548;2023-07-09T03:08:44;4.35;;;2.98;;
24637;SDS011;12773;50.162;8.548;2023-07-09T03:11:32;5.90;;;3.10;;
24637;SDS011;12773;50.162;8.548;2023-07-09T03:14:21;7.83;;;3.40;;
24637;SDS011;12773;50.162;8.548;2023-07-09T03:17:09;5.75;;;3.27;;
24637;SDS011;12773;50.162;8.548;2023-07-09T03:19:57;6.55;;;3.50;;
24637;SDS011;12773;50.162;8.548;2023-07-09T03:22:44;6.30;;;3.47;;
24637;SDS011;12773;50.162;8.548;2023-07-09T03:25:32;8.80;;;3.45;;
24637;SDS011;12773;50.162;8.548;2023-07-09T03:28:19;8.88;;;3.10;;
24637;SDS011;12773;50.162;8.548;2023-07-09T03:31:07;4.47;;;2.67;;
24637;SDS011;12773;50.162;8.548;2023-07-09T03:33:55;6.67;;;3.20;;
24637;SDS011;12773;50.162;8.548;2023-07-09T03:36:43;6.87;;;3.12;;
24637;SDS011;12773;50.162;8.548;2023-07-09T03:39:31;6.08;;;3.27;;
24637;SDS011;12773;50.162;8.548;2023-07-09T03:42:19;4.85;;;3.00;;
24637;SDS011;12773;50.162;8.548;2023-07-09T03:45:06;6.55;;;3.20;;
24637;SDS011;12773;50.162;8.548;2023-07-09T03:47:54;7.22;;;3.25;;
24637;SDS011;12773;50.162;8.548;2023-07-09T03:50:43;7.90;;;3.10;;
24637;SDS011;12773;50.162;8.548;2023-07-09T03:53:32;4.67;;;3.00;;
24637;SDS011;12773;50.162;8.548;2023-07-09T03:56:20;5.30;;;3.30;;
24637;SDS011;12773;50.162;8.548;2023-07-09T03:59:07;6.33;;;3.27;;
24637;SDS011;12773;50.162;8.548;2023-07-09T04:01:55;5.90;;;3.10;;
24637;SDS011;12773;50.162;8.548;2023-07-09T04:04:43;7.58;;;3.42;;
24637;SDS011;12773;50.162;8.548;2023-07-09T04:07:30;6.90;;;3.15;;
24637;SDS011;12773;50.162;8.548;2023-07-09T04:10:18;5.90;;;3.20;;
24637;SDS011;12773;50.162;8.548;2023-07-09T04:13:06;6.65;;;3.27;;
24637;SDS011;12773;50.162;8.548;2023-07-09T04:15:54;5.35;;;3.30;;
24637;SDS011;12773;50.162;8.548;2023-07-09T04:18:43;5.37;;;3.50;;
24637;SDS011;12773;50.162;8.548;2023-07-09T04:21:31;6.83;;;3.58;;
24637;SDS011;12773;50.162;8.548;2023-07-09T04:24:19;7.42;;;3.10;;
24637;SDS011;12773;50.162;8.548;2023-07-09T04:27:07;7.87;;;3.52;;
24637;SDS011;12773;50.162;8.548;2023-07-09T04:29:54;6.25;;;2.92;;
24637;SDS011;12773;50.162;8.548;2023-07-09T04:32:43;9.85;;;3.00;;
24637;SDS011;12773;50.162;8.548;2023-07-09T04:35:31;8.45;;;3.52;;
24637;SDS011;12773;50.162;8.548;2023-07-09T04:38:18;4.87;;;3.10;;
24637;SDS011;12773;50.162;8.548;2023-07-09T04:41:06;6.55;;;3.12;;
24637;SDS011;12773;50.162;8.548;2023-07-09T04:43:53;4.97;;;3.20;;
24637;SDS011;12773;50.162;8.548;2023-07-09T04:46:41;7.42;;;3.62;;
24637;SDS011;12773;50.162;8.548;2023-07-09T04:49:28;5.55;;;3.45;;
24637;SDS011;12773;50.162;8.548;2023-07-09T04:52:16;9.50;;;3.55;;
24637;SDS011;12773;50.162;8.548;2023-07-09T04:55:03;7.87;;;3.35;;
24637;SDS011;12773;50.162;8.548;2023-07-09T04:57:53;5.28;;;3.62;;
24637;SDS011;12773;50.162;8.548;2023-07-09T05:00:41;7.53;;;3.62;;
24637;SDS011;12773;50.162;8.548;2023-07-09T05:03:29;5.78;;;3.45;;
24637;SDS011;12773;50.162;8.548;2023-07-09T05:06:16;9.78;;;3.30;;
24637;SDS011;12773;50.162;8.548;2023-07-09T05:09:04;4.67;;;3.02;;
24637;SDS011;12773;50.162;8.548;2023-07-09T05:11:52;9.45;;;3.70;;
24637;SDS011;12773;50.162;8.548;2023-07-09T05:14:39;8.33;;;3.30;;
24637;SDS011;12773;50.162;8.548;2023-07-09T05:17:27;5.33;;;3.17;;
24637;SDS011;12773;50.162;8.548;2023-07-09T05:20:15;5.15;;;3.08;;
24637;SDS011;12773;50.162;8.548;2023-07-09T05:23:03;6.30;;;3.25;;
24637;SDS011;12773;50.162;8.548;2023-07-09T05:26:01;7.42;;;3.30;;
24637;SDS011;12773;50.162;8.548;2023-07-09T05:28:44;7.40;;;3.58;;
24637;SDS011;12773;50.162;8.548;2023-07-09T05:31:31;6.17;;;3.37;;
24637;SDS011;12773;50.162;8.548;2023-07-09T05:34:19;8.03;;;3.27;;
24637;SDS011;12773;50.162;8.548;2023-07-09T05:37:07;5.10;;;3.20;;
24637;SDS011;12773;50.162;8.548;2023-07-09T05:39:54;6.12;;;3.00;;
24637;SDS011;12773;50.162;8.548;2023-07-09T05:42:42;7.10;;;3.83;;
24637;SDS011;12773;50.162;8.548;2023-07-09T05:45:30;7.60;;;3.22;;
24637;SDS011;12773;50.162;8.548;2023-07-09T05:48:17;8.00;;;3.50;;
24637;SDS011;12773;50.162;8.548;2023-07-09T05:51:05;5.87;;;3.50;;
24637;SDS011;12773;50.162;8.548;2023-07-09T05:53:53;6.65;;;3.40;;
24637;SDS011;12773;50.162;8.548;2023-07-09T05:56:40;7.00;;;3.92;;
24637;SDS011;12773;50.162;8.548;2023-07-09T05:59:27;8.78;;;3.33;;
24637;SDS011;12773;50.162;8.548;2023-07-09T06:02:16;6.45;;;3.90;;
24637;SDS011;12773;50.162;8.548;2023-07-09T06:05:06;7.33;;;3.87;;
24637;SDS011;12773;50.162;8.548;2023-07-09T06:07:55;8.10;;;3.92;;
24637;SDS011;12773;50.162;8.548;2023-07-09T06:10:52;6.15;;;3.98;;
24637;SDS011;12773;50.162;8.548;2023-07-09T06:13:47;8.15;;;4.47;;
24637;SDS011;12773;50.162;8.548;2023-07-09T06:19:42;9.03;;;4.30;;
24637;SDS011;12773;50.162;8.548;2023-07-09T06:22:29;7.92;;;4.10;;
24637;SDS011;12773;50.162;8.548;2023-07-09T06:25:17;7.42;;;4.12;;
24637;SDS011;12773;50.162;8.548;2023-07-09T06:28:09;15.80;;;4.45;;
24637;SDS011;12773;50.162;8.548;2023-07-09T06:31:05;8.50;;;3.95;;
24637;SDS011;12773;50.162;8.548;2023-07-09T06:33:53;13.53;;;4.03;;
24637;SDS011;12773;50.162;8.548;2023-07-09T06:36:41;8.48;;;4.03;;
24637;SDS011;12773;50.162;8.548;2023-07-09T06:39:30;7.85;;;4.40;;
24637;SDS011;12773;50.162;8.548;2023-07-09T06:42:17;8.68;;;3.37;;
24637;SDS011;12773;50.162;8.548;2023-07-09T06:45:05;5.58;;;3.60;;
24637;SDS011;12773;50.162;8.548;2023-07-09T06:47:52;6.70;;;3.77;;
24637;SDS011;12773;50.162;8.548;2023-07-09T06:50:40;7.45;;;3.40;;
24637;SDS011;12773;50.162;8.548;2023-07-09T06:53:28;6.65;;;4.00;;
24637;SDS011;12773;50.162;8.548;2023-07-09T06:56:16;8.45;;;3.62;;
24637;SDS011;12773;50.162;8.548;2023-07-09T06:59:04;6.67;;;3.77;;
24637;SDS011;12773;50.162;8.548;2023-07-09T07:01:52;10.00;;;3.95;;
24637;SDS011;12773;50.162;8.548;2023-07-09T07:04:39;6.22;;;4.00;;
24637;SDS011;12773;50.162;8.548;2023-07-09T07:07:27;9.05;;;4.28;;
24637;SDS011;12773;50.162;8.548;2023-07-09T07:10:15;9.45;;;4.22;;
24637;SDS011;12773;50.162;8.548;2023-07-09T07:13:02;8.08;;;3.77;;
24637;SDS011;12773;50.162;8.548;2023-07-09T07:15:50;9.45;;;4.10;;
24637;SDS011;12773;50.162;8.548;2023-07-09T07:18:38;9.10;;;4.50;;
24637;SDS011;12773;50.162;8.548;2023-07-09T07:21:26;6.65;;;4.15;;
24637;SDS011;12773;50.162;8.548;2023-07-09T07:24:14;10.15;;;4.53;;
24637;SDS011;12773;50.162;8.548;2023-07-09T07:27:01;11.28;;;4.55;;
24637;SDS011;12773;50.162;8.548;2023-07-09T07:29:49;9.00;;;4.37;;
24637;SDS011;12773;50.162;8.548;2023-07-09T07:32:37;8.93;;;4.42;;
24637;SDS011;12773;50.162;8.548;2023-07-09T07:35:26;9.65;;;4.12;;
24637;SDS011;12773;50.162;8.548;2023-07-09T07:38:14;9.35;;;4.37;;
24637;SDS011;12773;50.162;8.548;2023-07-09T07:41:01;7.12;;;3.87;;
24637;SDS011;12773;50.162;8.548;2023-07-09T07:43:49;8.50;;;4.00;;
24637;SDS011;12773;50.162;8.548;2023-07-09T07:46:37;8.60;;;3.90;;
24637;SDS011;12773;50.162;8.548;2023-07-09T07:49:24;6.58;;;4.37;;
24637;SDS011;12773;50.162;8.548;2023-07-09T07:52:13;7.87;;;4.17;;
24637;SDS011;12773;50.162;8.548;2023-07-09T07:55:01;8.00;;;4.35;;
24637;SDS011;12773;50.162;8.548;2023-07-09T07:57:48;9.05;;;4.03;;
24637;SDS011;12773;50.162;8.548;2023-07-09T08:00:35;6.60;;;3.70;;
24637;SDS011;12773;50.162;8.548;2023-07-09T08:03:29;8.63;;;3.98;;
24637;SDS011;12773;50.162;8.548;2023-07-09T08:06:16;11.25;;;4.05;;
24637;SDS011;12773;50.162;8.548;2023-07-09T08:09:04;7.83;;;4.08;;
24637;SDS011;12773;50.162;8.548;2023-07-09T08:11:51;7.08;;;4.65;;
24637;SDS011;12773;50.162;8.548;2023-07-09T08:14:40;10.28;;;4.83;;
24637;SDS011;12773;50.162;8.548;2023-07-09T08:17:29;7.33;;;4.22;;
24637;SDS011;12773;50.162;8.548;2023-07-09T08:20:17;6.65;;;3.80;;
24637;SDS011;12773;50.162;8.548;2023-07-09T08:23:05;6.47;;;4.25;;
24637;SDS011;12773;50.162;8.548;2023-07-09T08:25:53;6.17;;;3.90;;
24637;SDS011;12773;50.162;8.548;2023-07-09T08:28:42;10.88;;;4.60;;
24637;SDS011;12773;50.162;8.548;2023-07-09T08:31:29;8.90;;;4.33;;
24637;SDS011;12773;50.162;8.548;2023-07-09T08:34:17;7.67;;;3.80;;
24637;SDS011;12773;50.162;8.548;2023-07-09T08:37:05;8.03;;;4.17;;
24637;SDS011;12773;50.162;8.548;2023-07-09T08:39:54;9.70;;;4.12;;
24637;SDS011;12773;50.162;8.548;2023-07-09T08:42:46;7.95;;;3.83;;
24637;SDS011;12773;50.162;8.548;2023-07-09T08:45:57;7.97;;;4.00;;
24637;SDS011;12773;50.162;8.548;2023-07-09T08:48:36;10.85;;;4.65;;
24637;SDS011;12773;50.162;8.548;2023-07-09T08:51:38;6.55;;;4.00;;
24637;SDS011;12773;50.162;8.548;2023-07-09T08:54:25;8.20;;;4.22;;
24637;SDS011;12773;50.162;8.548;2023-07-09T08:57:22;7.72;;;4.40;;
24637;SDS011;12773;50.162;8.548;2023-07-09T09:00:19;5.97;;;4.22;;
24637;SDS011;12773;50.162;8.548;2023-07-09T09:03:08;6.62;;;3.62;;
24637;SDS011;12773;50.162;8.548;2023-07-09T09:06:00;6.50;;;4.05;;
24637;SDS011;12773;50.162;8.548;2023-07-09T09:11:57;8.83;;;4.33;;
24637;SDS011;12773;50.162;8.548;2023-07-09T09:14:51;8.55;;;4.40;;
24637;SDS011;12773;50.162;8.548;2023-07-09T09:17:37;7.83;;;4.55;;
24637;SDS011;12773;50.162;8.548;2023-07-09T09:20:26;8.13;;;4.40;;
24637;SDS011;12773;50.162;8.548;2023-07-09T09:23:14;7.85;;;4.28;;
24637;SDS011;12773;50.162;8.548;2023-07-09T09:26:02;8.38;;;4.45;;
24637;SDS011;12773;50.162;8.548;2023-07-09T09:28:54;8.30;;;4.35;;
24637;SDS011;12773;50.162;8.548;2023-07-09T09:31:46;7.87;;;4.00;;
24637;SDS011;12773;50.162;8.548;2023-07-09T09:34:35;8.10;;;4.40;;
24637;SDS011;12773;50.162;8.548;2023-07-09T09:37:29;7.42;;;4.20;;
24637;SDS011;12773;50.162;8.548;2023-07-09T09:40:16;9.13;;;3.90;;
24637;SDS011;12773;50.162;8.548;2023-07-09T09:43:15;8.33;;;4.83;;
24637;SDS011;12773;50.162;8.548;2023-07-09T09:46:06;8.38;;;4.55;;
24637;SDS011;12773;50.162;8.548;2023-07-09T09:48:54;9.58;;;4.53;;
24637;SDS011;12773;50.162;8.548;2023-07-09T09:51:44;11.60;;;4.53;;
24637;SDS011;12773;50.162;8.548;2023-07-09T09:54:33;7.03;;;4.30;;
24637;SDS011;12773;50.162;8.548;2023-07-09T09:57:27;8.85;;;4.20;;
24637;SDS011;12773;50.162;8.548;2023-07-09T10:00:14;8.38;;;4.28;;
24637;SDS011;12773;50.162;8.548;2023-07-09T10:03:03;8.75;;;3.85;;
24637;SDS011;12773;50.162;8.548;2023-07-09T10:05:55;5.75;;;3.47;;
24637;SDS011;12773;50.162;8.548;2023-07-09T10:11:55;11.97;;;3.45;;
24637;SDS011;12773;50.162;8.548;2023-07-09T10:17:37;10.08;;;3.87;;
24637;SDS011;12773;50.162;8.548;2023-07-09T10:21:14;9.55;;;4.15;;
24637;SDS011;12773;50.162;8.548;2023-07-09T10:23:28;11.65;;;3.80;;
24637;SDS011;12773;50.162;8.548;2023-07-09T10:35:47;7.00;;;3.72;;
24637;SDS011;12773;50.162;8.548;2023-07-09T10:38:42;7.80;;;3.80;;
24637;SDS011;12773;50.162;8.548;2023-07-09T10:41:28;6.10;;;4.00;;
24637;SDS011;12773;50.162;8.548;2023-07-09T10:44:19;8.05;;;3.77;;
24637;SDS011;12773;50.162;8.548;2023-07-09T10:47:37;7.60;;;3.83;;
24637;SDS011;12773;50.162;8.548;2023-07-09T10:50:34;5.17;;;3.50;;
24637;SDS011;12773;50.162;8.548;2023-07-09T10:53:33;8.05;;;3.67;;
24637;SDS011;12773;50.162;8.548;2023-07-09T10:56:33;8.70;;;4.03;;
24637;SDS011;12773;50.162;8.548;2023-07-09T10:59:29;7.25;;;3.80;;
24637;SDS011;12773;50.162;8.548;2023-07-09T11:05:15;7.17;;;3.95;;
24637;SDS011;12773;50.162;8.548;2023-07-09T11:08:15;10.82;;;4.10;;
24637;SDS011;12773;50.162;8.548;2023-07-09T11:11:04;6.85;;;3.80;;
24637;SDS011;12773;50.162;8.548;2023-07-09T11:13:57;6.42;;;3.90;;
24637;SDS011;12773;50.162;8.548;2023-07-09T11:16:46;6.85;;;4.10;;
24637;SDS011;12773;50.162;8.548;2023-07-09T11:19:40;6.42;;;3.87;;
24637;SDS011;12773;50.162;8.548;2023-07-09T11:22:37;7.08;;;3.87;;
24637;SDS011;12773;50.162;8.548;2023-07-09T11:25:28;7.17;;;3.80;;
24637;SDS011;12773;50.162;8.548;2023-07-09T11:28:17;8.10;;;3.87;;
24637;SDS011;12773;50.162;8.548;2023-07-09T11:31:08;5.20;;;3.70;;
24637;SDS011;12773;50.162;8.548;2023-07-09T11:37:08;7.47;;;3.62;;
24637;SDS011;12773;50.162;8.548;2023-07-09T11:39:53;5.83;;;3.87;;
24637;SDS011;12773;50.162;8.548;2023-07-09T11:43:00;6.55;;;3.60;;
24637;SDS011;12773;50.162;8.548;2023-07-09T11:45:45;5.87;;;3.30;;
24637;SDS011;12773;50.162;8.548;2023-07-09T11:48:32;7.30;;;3.62;;
24637;SDS011;12773;50.162;8.548;2023-07-09T11:51:26;7.15;;;3.42;;
24637;SDS011;12773;50.162;8.548;2023-07-09T11:54:17;6.20;;;3.20;;
24637;SDS011;12773;50.162;8.548;2023-07-09T11:57:10;7.28;;;3.67;;
24637;SDS011;12773;50.162;8.548;2023-07-09T11:59:59;7.10;;;4.03;;
24637;SDS011;12773;50.162;8.548;2023-07-09T12:02:47;8.88;;;3.40;;
24637;SDS011;12773;50.162;8.548;2023-07-09T12:05:36;6.95;;;3.33;;
24637;SDS011;12773;50.162;8.548;2023-07-09T12:08:29;5.20;;;3.40;;
24637;SDS011;12773;50.162;8.548;2023-07-09T12:14:15;7.12;;;3.52;;
24637;SDS011;12773;50.162;8.548;2023-07-09T12:17:07;7.03;;;3.62;;
24637;SDS011;12773;50.162;8.548;2023-07-09T12:19:55;6.17;;;3.70;;
24637;SDS011;12773;50.162;8.548;2023-07-09T12:22:43;8.83;;;3.92;;
24637;SDS011;12773;50.162;8.548;2023-07-09T12:25:31;6.08;;;3.55;;
24637;SDS011;12773;50.162;8.548;2023-07-09T12:28:19;6.85;;;3.80;;
24637;SDS011;12773;50.162;8.548;2023-07-09T12:31:14;5.80;;;3.20;;
24637;SDS011;12773;50.162;8.548;2023-07-09T12:34:02;5.80;;;3.62;;
24637;SDS011;12773;50.162;8.548;2023-07-09T12:36:50;7.95;;;4.03;;
24637;SDS011;12773;50.162;8.548;2023-07-09T12:39:39;7.10;;;4.10;;
24637;SDS011;12773;50.162;8.548;2023-07-09T12:42:30;4.08;;;3.33;;
24637;SDS011;12773;50.162;8.548;2023-07-09T12:45:20;5.22;;;3.83;;
24637;SDS011;12773;50.162;8.548;2023-07-09T12:48:08;7.10;;;4.05;;
24637;SDS011;12773;50.162;8.548;2023-07-09T12:50:59;5.90;;;3.58;;
24637;SDS011;12773;50.162;8.548;2023-07-09T12:53:47;7.00;;;3.72;;
24637;SDS011;12773;50.162;8.548;2023-07-09T12:56:35;6.83;;;3.65;;
24637;SDS011;12773;50.162;8.548;2023-07-09T12:59:27;8.50;;;3.95;;
24637;SDS011;12773;50.162;8.548;2023-07-09T13:02:18;5.72;;;3.30;;
24637;SDS011;12773;50.162;8.548;2023-07-09T13:05:17;5.65;;;3.58;;
24637;SDS011;12773;50.162;8.548;2023-07-09T13:08:11;5.53;;;3.40;;
24637;SDS011;12773;50.162;8.548;2023-07-09T13:11:00;7.20;;;3.85;;
24637;SDS011;12773;50.162;8.548;2023-07-09T13:13:55;5.90;;;3.40;;
24637;SDS011;12773;50.162;8.548;2023-07-09T13:16:47;8.60;;;3.40;;
24637;SDS011;12773;50.162;8.548;2023-07-09T13:19:35;6.87;;;3.75;;
24637;SDS011;12773;50.162;8.548;2023-07-09T13:22:23;8.13;;;3.20;;
24637;SDS011;12773;50.162;8.548;2023-07-09T13:25:11;9.18;;;3.85;;
24637;SDS011;12773;50.162;8.548;2023-07-09T13:27:58;7.08;;;3.25;;
24637;SDS011;12773;50.162;8.548;2023-07-09T13:30:53;6.70;;;3.47;;
24637;SDS011;12773;50.162;8.548;2023-07-09T13:33:43;7.35;;;3.77;;
24637;SDS011;12773;50.162;8.548;2023-07-09T13:36:32;7.30;;;3.72;;
24637;SDS011;12773;50.162;8.548;2023-07-09T13:39:20;10.72;;;3.80;;
24637;SDS011;12773;50.162;8.548;2023-07-09T13:42:13;6.87;;;3.62;;
24637;SDS011;12773;50.162;8.548;2023-07-09T13:45:03;6.53;;;3.60;;
24637;SDS011;12773;50.162;8.548;2023-07-09T13:47:51;6.75;;;3.52;;
24637;SDS011;12773;50.162;8.548;2023-07-09T13:50:40;6.70;;;3.87;;
24637;SDS011;12773;50.162;8.548;2023-07-09T13:53:29;5.15;;;3.40;;
24637;SDS011;12773;50.162;8.548;2023-07-09T13:56:17;6.25;;;3.50;;
24637;SDS011;12773;50.162;8.548;2023-07-09T13:59:10;6.22;;;3.83;;
24637;SDS011;12773;50.162;8.548;2023-07-09T14:02:01;5.87;;;3.35;;
24637;SDS011;12773;50.162;8.548;2023-07-09T14:04:52;6.72;;;3.47;;
24637;SDS011;12773;50.162;8.548;2023-07-09T14:07:41;4.60;;;3.20;;
24637;SDS011;12773;50.162;8.548;2023-07-09T14:10:29;5.35;;;3.80;;
24637;SDS011;12773;50.162;8.548;2023-07-09T14:13:17;4.55;;;3.60;;
24637;SDS011;12773;50.162;8.548;2023-07-09T14:16:09;8.35;;;3.83;;
24637;SDS011;12773;50.162;8.548;2023-07-09T14:18:57;6.55;;;4.00;;
24637;SDS011;12773;50.162;8.548;2023-07-09T14:21:45;6.83;;;3.70;;
24637;SDS011;12773;50.162;8.548;2023-07-09T14:24:33;6.50;;;3.70;;
24637;SDS011;12773;50.162;8.548;2023-07-09T14:27:21;8.90;;;3.52;;
24637;SDS011;12773;50.162;8.548;2023-07-09T14:30:09;6.22;;;3.92;;
24637;SDS011;12773;50.162;8.548;2023-07-09T14:33:02;5.17;;;3.37;;
24637;SDS011;12773;50.162;8.548;2023-07-09T14:35:51;8.98;;;3.40;;
24637;SDS011;12773;50.162;8.548;2023-07-09T14:38:38;7.40;;;3.92;;
24637;SDS011;12773;50.162;8.548;2023-07-09T14:41:26;7.10;;;3.50;;
24637;SDS011;12773;50.162;8.548;2023-07-09T14:47:12;6.92;;;3.67;;
24637;SDS011;12773;50.162;8.548;2023-07-09T14:50:04;6.22;;;3.58;;
24637;SDS011;12773;50.162;8.548;2023-07-09T14:52:51;7.83;;;3.55;;
24637;SDS011;12773;50.162;8.548;2023-07-09T14:55:39;6.00;;;3.42;;
24637;SDS011;12773;50.162;8.548;2023-07-09T14:58:27;6.85;;;3.72;;
24637;SDS011;12773;50.162;8.548;2023-07-09T15:01:14;10.03;;;3.65;;
24637;SDS011;12773;50.162;8.548;2023-07-09T15:04:09;4.90;;;3.30;;
24637;SDS011;12773;50.162;8.548;2023-07-09T15:07:08;5.83;;;3.60;;
24637;SDS011;12773;50.162;8.548;2023-07-09T15:09:57;9.85;;;3.87;;
24637;SDS011;12773;50.162;8.548;2023-07-09T15:12:50;4.67;;;3.52;;
24637;SDS011;12773;50.162;8.548;2023-07-09T15:15:38;7.70;;;3.35;;
24637;SDS011;12773;50.162;8.548;2023-07-09T15:18:25;9.70;;;3.95;;
24637;SDS011;12773;50.162;8.548;2023-07-09T15:21:13;5.72;;;3.40;;
24637;SDS011;12773;50.162;8.548;2023-07-09T15:24:01;8.35;;;3.87;;
24637;SDS011;12773;50.162;8.548;2023-07-09T15:26:50;5.42;;;3.22;;
24637;SDS011;12773;50.162;8.548;2023-07-09T15:29:39;5.50;;;3.70;;
24637;SDS011;12773;50.162;8.548;2023-07-09T15:32:26;6.75;;;4.05;;
24637;SDS011;12773;50.162;8.548;2023-07-09T15:35:14;6.90;;;4.05;;
24637;SDS011;12773;50.162;8.548;2023-07-09T15:38:12;9.45;;;3.90;;
24637;SDS011;12773;50.162;8.548;2023-07-09T15:41:07;8.65;;;3.67;;
24637;SDS011;12773;50.162;8.548;2023-07-09T15:43:56;7.78;;;3.70;;
24637;SDS011;12773;50.162;8.548;2023-07-09T15:46:46;6.47;;;3.60;;
24637;SDS011;12773;50.162;8.548;2023-07-09T15:49:41;8.90;;;3.55;;
24637;SDS011;12773;50.162;8.548;2023-07-09T15:52:28;6.50;;;3.70;;
24637;SDS011;12773;50.162;8.548;2023-07-09T15:55:17;7.65;;;3.70;;
24637;SDS011;12773;50.162;8.548;2023-07-09T15:58:08;6.78;;;3.58;;
24637;SDS011;12773;50.162;8.548;2023-07-09T16:00:56;7.70;;;3.67;;
24637;SDS011;12773;50.162;8.548;2023-07-09T16:03:48;6.42;;;3.95;;
24637;SDS011;12773;50.162;8.548;2023-07-09T16:06:40;8.45;;;4.05;;
24637;SDS011;12773;50.162;8.548;2023-07-09T16:09:28;5.08;;;3.45;;
24637;SDS011;12773;50.162;8.548;2023-07-09T16:12:15;6.12;;;3.50;;
24637;SDS011;12773;50.162;8.548;2023-07-09T16:15:03;5.20;;;3.37;;
24637;SDS011;12773;50.162;8.548;2023-07-09T16:17:52;9.43;;;3.85;;
24637;SDS011;12773;50.162;8.548;2023-07-09T16:20:40;6.60;;;3.55;;
24637;SDS011;12773;50.162;8.548;2023-07-09T16:23:28;9.48;;;4.00;;
24637;SDS011;12773;50.162;8.548;2023-07-09T16:26:16;7.42;;;3.40;;
24637;SDS011;12773;50.162;8.548;2023-07-09T16:29:08;6.50;;;3.75;;
24637;SDS011;12773;50.162;8.548;2023-07-09T16:31:55;8.68;;;3.85;;
24637;SDS011;12773;50.162;8.548;2023-07-09T16:34:44;6.75;;;4.05;;
24637;SDS011;12773;50.162;8.548;2023-07-09T16:37:32;6.08;;;3.67;;
24637;SDS011;12773;50.162;8.548;2023-07-09T16:43:14;6.08;;;3.40;;
24637;SDS011;12773;50.162;8.548;2023-07-09T16:46:10;9.90;;;3.47;;
24637;SDS011;12773;50.162;8.548;2023-07-09T16:48:54;8.98;;;3.70;;
24637;SDS011;12773;50.162;8.548;2023-07-09T16:51:41;6.72;;;3.20;;
24637;SDS011;12773;50.162;8.548;2023-07-09T16:54:29;18.27;;;3.72;;
24637;SDS011;12773;50.162;8.548;2023-07-09T16:57:17;8.53;;;3.77;;
24637;SDS011;12773;50.162;8.548;2023-07-09T17:03:08;6.53;;;3.10;;
24637;SDS011;12773;50.162;8.548;2023-07-09T17:05:57;6.37;;;3.30;;
24637;SDS011;12773;50.162;8.548;2023-07-09T17:08:45;6.15;;;3.55;;
24637;SDS011;12773;50.162;8.548;2023-07-09T17:11:33;8.93;;;3.20;;
24637;SDS011;12773;50.162;8.548;2023-07-09T17:14:20;7.70;;;3.47;;
24637;SDS011;12773;50.162;8.548;2023-07-09T17:17:11;8.53;;;3.12;;
24637;SDS011;12773;50.162;8.548;2023-07-09T17:20:01;6.65;;;2.98;;
24637;SDS011;12773;50.162;8.548;2023-07-09T17:22:50;8.60;;;3.50;;
24637;SDS011;12773;50.162;8.548;2023-07-09T17:25:40;5.17;;;2.95;;
24637;SDS011;12773;50.162;8.548;2023-07-09T17:28:28;9.35;;;3.40;;
24637;SDS011;12773;50.162;8.548;2023-07-09T17:31:18;9.98;;;3.20;;
24637;SDS011;12773;50.162;8.548;2023-07-09T17:34:05;5.05;;;3.17;;
24637;SDS011;12773;50.162;8.548;2023-07-09T17:36:52;8.40;;;3.33;;
24637;SDS011;12773;50.162;8.548;2023-07-09T17:39:40;11.20;;;3.25;;
24637;SDS011;12773;50.162;8.548;2023-07-09T17:42:28;6.72;;;3.62;;
24637;SDS011;12773;50.162;8.548;2023-07-09T17:45:16;7.28;;;3.15;;
24637;SDS011;12773;50.162;8.548;2023-07-09T17:48:07;10.30;;;3.40;;
24637;SDS011;12773;50.162;8.548;2023-07-09T17:51:03;10.25;;;3.40;;
24637;SDS011;12773;50.162;8.548;2023-07-09T17:53:51;16.95;;;3.50;;